sensor_id;sensor_type;location;lat;lon;timestamp;pressure;altitude;pressure_sealevel;temperature;humidity
57594;BME280;43423;46.510;6.686;2023-05-19T00:01:56;96603.84;;;10.36;91.04
57594;BME280;43423;46.510;6.686;2023-05-19T00:04:25;96597.22;;;10.43;90.14
57594;BME280;43423;46.510;6.686;2023-05-19T00:06:52;96588.78;;;10.31;90.17
57594;BME280;43423;46.510;6.686;2023-05-19T00:09:19;96598.81;;;10.34;90.30
57594;BME280;43423;46.510;6.686;2023-05-19T00:11:44;96587.31;;;10.21;91.15
57594;BME280;43423;46.510;6.686;2023-05-19T00:14:11;96591.63;;;10.22;91.28
57594;BME280;43423;46.510;6.686;2023-05-19T00:16:37;96592.72;;;10.16;91.81
57594;BME280;43423;46.510;6.686;2023-05-19T00:19:03;96588.06;;;10.07;93.20
57594;BME280;43423;46.510;6.686;2023-05-19T00:21:30;96577.47;;;10.15;91.68
57594;BME280;43423;46.510;6.686;2023-05-19T00:23:56;96586.75;;;10.17;91.06
57594;BME280;43423;46.510;6.686;2023-05-19T00:26:22;96580.41;;;10.11;92.36
57594;BME280;43423;46.510;6.686;2023-05-19T00:28:49;96583.16;;;10.11;92.54
57594;BME280;43423;46.510;6.686;2023-05-19T00:31:15;96574.59;;;10.09;92.58
57594;BME280;43423;46.510;6.686;2023-05-19T00:33:40;96577.06;;;10.07;92.34
57594;BME280;43423;46.510;6.686;2023-05-19T00:36:06;96581.63;;;10.10;93.64
57594;BME280;43423;46.510;6.686;2023-05-19T00:38:34;96574.53;;;10.03;92.74
57594;BME280;43423;46.510;6.686;2023-05-19T00:41:01;96575.19;;;10.13;92.46
57594;BME280;43423;46.510;6.686;2023-05-19T00:43:27;96574.22;;;10.16;90.81
57594;BME280;43423;46.510;6.686;2023-05-19T00:45:54;96577.09;;;10.22;90.33
57594;BME280;43423;46.510;6.686;2023-05-19T00:48:21;96572.19;;;10.41;89.56
57594;BME280;43423;46.510;6.686;2023-05-19T00:50:47;96571.03;;;10.32;89.85
57594;BME280;43423;46.510;6.686;2023-05-19T00:53:16;96572.94;;;10.26;88.85
57594;BME280;43423;46.510;6.686;2023-05-19T00:55:42;96565.16;;;10.25;87.91
57594;BME280;43423;46.510;6.686;2023-05-19T00:58:09;96574.00;;;10.44;87.87
57594;BME280;43423;46.510;6.686;2023-05-19T01:00:35;96575.50;;;10.45;87.98
57594;BME280;43423;46.510;6.686;2023-05-19T01:03:02;96575.22;;;10.28;89.57
57594;BME280;43423;46.510;6.686;2023-05-19T01:05:37;96568.88;;;10.37;91.00
57594;BME280;43423;46.510;6.686;2023-05-19T01:08:04;96572.38;;;10.22;92.69
57594;BME280;43423;46.510;6.686;2023-05-19T01:10:30;96567.03;;;10.19;92.88
57594;BME280;43423;46.510;6.686;2023-05-19T01:12:56;96571.22;;;10.14;92.09
57594;BME280;43423;46.510;6.686;2023-05-19T01:15:22;96564.97;;;10.14;92.53
57594;BME280;43423;46.510;6.686;2023-05-19T01:18:14;96568.56;;;10.05;92.71
57594;BME280;43423;46.510;6.686;2023-05-19T01:20:46;96566.75;;;10.17;92.84
57594;BME280;43423;46.510;6.686;2023-05-19T01:23:46;96570.56;;;10.19;92.19
57594;BME280;43423;46.510;6.686;2023-05-19T01:29:28;96575.72;;;10.02;93.98
57594;BME280;43423;46.510;6.686;2023-05-19T01:32:03;96566.66;;;9.96;91.74
57594;BME280;43423;46.510;6.686;2023-05-19T01:34:32;96562.16;;;9.84;93.09
57594;BME280;43423;46.510;6.686;2023-05-19T01:37:00;96574.56;;;9.79;93.67
57594;BME280;43423;46.510;6.686;2023-05-19T01:39:26;96577.59;;;9.82;94.31
57594;BME280;43423;46.510;6.686;2023-05-19T01:41:53;96566.63;;;9.82;93.58
57594;BME280;43423;46.510;6.686;2023-05-19T01:44:19;96569.72;;;9.74;93.10
57594;BME280;43423;46.510;6.686;2023-05-19T01:46:47;96575.50;;;9.76;94.21
57594;BME280;43423;46.510;6.686;2023-05-19T01:49:13;96567.53;;;9.78;92.62
57594;BME280;43423;46.510;6.686;2023-05-19T01:51:39;96570.28;;;9.78;93.41
57594;BME280;43423;46.510;6.686;2023-05-19T01:54:05;96560.06;;;9.79;93.57
57594;BME280;43423;46.510;6.686;2023-05-19T01:56:41;96567.09;;;9.80;92.75
57594;BME280;43423;46.510;6.686;2023-05-19T01:59:22;96567.53;;;9.64;93.79
57594;BME280;43423;46.510;6.686;2023-05-19T02:01:53;96567.53;;;9.64;93.32
57594;BME280;43423;46.510;6.686;2023-05-19T02:04:38;96564.06;;;9.54;94.50
57594;BME280;43423;46.510;6.686;2023-05-19T02:09:55;96572.63;;;9.56;93.24
57594;BME280;43423;46.510;6.686;2023-05-19T02:17:32;96557.66;;;9.57;93.75
57594;BME280;43423;46.510;6.686;2023-05-19T02:19:58;96558.31;;;9.52;94.72
57594;BME280;43423;46.510;6.686;2023-05-19T02:22:23;96550.81;;;9.52;94.62
57594;BME280;43423;46.510;6.686;2023-05-19T02:24:49;96548.97;;;9.35;94.74
57594;BME280;43423;46.510;6.686;2023-05-19T02:27:16;96558.94;;;9.47;94.02
57594;BME280;43423;46.510;6.686;2023-05-19T02:29:43;96557.41;;;9.46;93.15
57594;BME280;43423;46.510;6.686;2023-05-19T02:32:09;96560.47;;;9.48;93.64
57594;BME280;43423;46.510;6.686;2023-05-19T02:34:35;96556.38;;;9.43;93.76
57594;BME280;43423;46.510;6.686;2023-05-19T02:37:00;96560.22;;;9.37;95.06
57594;BME280;43423;46.510;6.686;2023-05-19T02:39:26;96563.72;;;9.37;94.71
57594;BME280;43423;46.510;6.686;2023-05-19T02:41:53;96567.22;;;9.38;95.07
57594;BME280;43423;46.510;6.686;2023-05-19T02:44:18;96562.69;;;9.35;94.03
57594;BME280;43423;46.510;6.686;2023-05-19T02:46:44;96559.94;;;9.35;94.93
57594;BME280;43423;46.510;6.686;2023-05-19T02:49:10;96559.75;;;9.38;93.46
57594;BME280;43423;46.510;6.686;2023-05-19T02:51:36;96550.50;;;9.36;94.86
57594;BME280;43423;46.510;6.686;2023-05-19T02:54:01;96550.69;;;9.32;95.12
57594;BME280;43423;46.510;6.686;2023-05-19T02:56:27;96549.88;;;9.32;95.66
57594;BME280;43423;46.510;6.686;2023-05-19T02:58:53;96555.69;;;9.34;95.20
57594;BME280;43423;46.510;6.686;2023-05-19T03:01:18;96550.50;;;9.36;94.31
57594;BME280;43423;46.510;6.686;2023-05-19T03:03:46;96547.94;;;9.32;95.36
57594;BME280;43423;46.510;6.686;2023-05-19T03:06:11;96547.53;;;9.25;96.40
57594;BME280;43423;46.510;6.686;2023-05-19T03:08:37;96550.19;;;9.34;94.89
57594;BME280;43423;46.510;6.686;2023-05-19T03:11:03;96546.03;;;9.38;93.96
57594;BME280;43423;46.510;6.686;2023-05-19T03:13:28;96552.94;;;9.58;92.65
57594;BME280;43423;46.510;6.686;2023-05-19T03:15:54;96534.53;;;9.49;93.18
57594;BME280;43423;46.510;6.686;2023-05-19T03:18:22;96548.56;;;9.51;92.99
57594;BME280;43423;46.510;6.686;2023-05-19T03:20:49;96536.81;;;9.50;93.11
57594;BME280;43423;46.510;6.686;2023-05-19T03:23:14;96542.19;;;9.45;93.93
57594;BME280;43423;46.510;6.686;2023-05-19T03:25:40;96531.50;;;9.47;93.83
57594;BME280;43423;46.510;6.686;2023-05-19T03:28:06;96538.41;;;9.42;92.13
57594;BME280;43423;46.510;6.686;2023-05-19T03:30:31;96531.44;;;9.56;89.94
57594;BME280;43423;46.510;6.686;2023-05-19T03:32:57;96531.53;;;9.62;88.90
57594;BME280;43423;46.510;6.686;2023-05-19T03:35:22;96529.22;;;9.45;91.42
57594;BME280;43423;46.510;6.686;2023-05-19T03:37:48;96527.81;;;9.50;90.91
57594;BME280;43423;46.510;6.686;2023-05-19T03:40:14;96530.31;;;9.39;92.67
57594;BME280;43423;46.510;6.686;2023-05-19T03:42:40;96535.97;;;9.59;91.82
57594;BME280;43423;46.510;6.686;2023-05-19T03:45:05;96536.97;;;9.47;90.91
57594;BME280;43423;46.510;6.686;2023-05-19T03:47:31;96546.69;;;9.57;91.19
57594;BME280;43423;46.510;6.686;2023-05-19T03:49:57;96540.25;;;9.60;90.02
57594;BME280;43423;46.510;6.686;2023-05-19T03:52:23;96543.22;;;9.47;90.67
57594;BME280;43423;46.510;6.686;2023-05-19T03:54:48;96546.03;;;9.38;91.32
57594;BME280;43423;46.510;6.686;2023-05-19T03:57:14;96548.50;;;9.36;90.03
57594;BME280;43423;46.510;6.686;2023-05-19T03:59:39;96544.06;;;9.39;86.82
57594;BME280;43423;46.510;6.686;2023-05-19T04:02:06;96560.16;;;9.46;87.35
57594;BME280;43423;46.510;6.686;2023-05-19T04:04:31;96549.09;;;9.40;86.98
57594;BME280;43423;46.510;6.686;2023-05-19T04:06:57;96562.63;;;9.44;88.33
57594;BME280;43423;46.510;6.686;2023-05-19T04:09:22;96549.19;;;9.46;89.01
57594;BME280;43423;46.510;6.686;2023-05-19T04:11:50;96562.34;;;9.42;90.04
57594;BME280;43423;46.510;6.686;2023-05-19T04:14:16;96558.78;;;9.50;88.33
57594;BME280;43423;46.510;6.686;2023-05-19T04:16:42;96568.00;;;9.38;88.62
57594;BME280;43423;46.510;6.686;2023-05-19T04:19:07;96562.75;;;9.26;91.03
57594;BME280;43423;46.510;6.686;2023-05-19T04:21:33;96568.88;;;9.20;92.80
57594;BME280;43423;46.510;6.686;2023-05-19T04:23:58;96561.63;;;9.08;93.25
57594;BME280;43423;46.510;6.686;2023-05-19T04:26:25;96555.38;;;9.08;93.54
57594;BME280;43423;46.510;6.686;2023-05-19T04:28:51;96568.31;;;9.16;94.03
57594;BME280;43423;46.510;6.686;2023-05-19T04:31:18;96566.19;;;9.11;93.38
57594;BME280;43423;46.510;6.686;2023-05-19T04:33:46;96559.53;;;9.27;93.18
57594;BME280;43423;46.510;6.686;2023-05-19T04:36:12;96565.84;;;9.18;93.25
57594;BME280;43423;46.510;6.686;2023-05-19T04:38:38;96572.25;;;9.15;93.04
57594;BME280;43423;46.510;6.686;2023-05-19T04:41:07;96568.69;;;9.24;93.62
57594;BME280;43423;46.510;6.686;2023-05-19T04:43:36;96559.69;;;9.23;93.80
57594;BME280;43423;46.510;6.686;2023-05-19T04:46:12;96563.84;;;9.43;92.23
57594;BME280;43423;46.510;6.686;2023-05-19T04:48:38;96571.22;;;9.37;92.48
57594;BME280;43423;46.510;6.686;2023-05-19T04:51:05;96573.66;;;9.35;92.84
57594;BME280;43423;46.510;6.686;2023-05-19T04:53:31;96564.50;;;9.38;92.64
57594;BME280;43423;46.510;6.686;2023-05-19T04:55:58;96584.81;;;9.55;92.01
57594;BME280;43423;46.510;6.686;2023-05-19T04:58:25;96575.53;;;9.52;91.26
57594;BME280;43423;46.510;6.686;2023-05-19T05:00:52;96566.72;;;9.48;94.33
57594;BME280;43423;46.510;6.686;2023-05-19T05:03:22;96575.47;;;9.62;94.72
57594;BME280;43423;46.510;6.686;2023-05-19T05:05:47;96577.56;;;9.67;94.15
57594;BME280;43423;46.510;6.686;2023-05-19T05:08:13;96583.34;;;9.69;94.22
57594;BME280;43423;46.510;6.686;2023-05-19T05:10:40;96579.66;;;9.72;95.05
57594;BME280;43423;46.510;6.686;2023-05-19T05:13:06;96580.72;;;9.74;94.79
57594;BME280;43423;46.510;6.686;2023-05-19T05:15:32;96575.13;;;9.84;94.69
57594;BME280;43423;46.510;6.686;2023-05-19T05:18:00;96579.16;;;9.97;91.58
57594;BME280;43423;46.510;6.686;2023-05-19T05:20:26;96582.56;;;10.07;89.57
57594;BME280;43423;46.510;6.686;2023-05-19T05:22:51;96578.44;;;10.26;88.87
57594;BME280;43423;46.510;6.686;2023-05-19T05:25:18;96576.34;;;10.21;88.43
57594;BME280;43423;46.510;6.686;2023-05-19T05:27:44;96578.06;;;10.33;88.25
57594;BME280;43423;46.510;6.686;2023-05-19T05:30:10;96579.28;;;10.32;88.36
57594;BME280;43423;46.510;6.686;2023-05-19T05:32:36;96572.66;;;10.39;87.85
57594;BME280;43423;46.510;6.686;2023-05-19T05:35:02;96566.50;;;10.44;89.22
57594;BME280;43423;46.510;6.686;2023-05-19T05:37:27;96572.38;;;10.52;89.87
57594;BME280;43423;46.510;6.686;2023-05-19T05:39:53;96561.78;;;10.45;87.79
57594;BME280;43423;46.510;6.686;2023-05-19T05:42:18;96566.19;;;10.57;88.98
57594;BME280;43423;46.510;6.686;2023-05-19T05:44:44;96575.94;;;10.73;88.00
57594;BME280;43423;46.510;6.686;2023-05-19T05:47:10;96578.69;;;10.73;87.03
57594;BME280;43423;46.510;6.686;2023-05-19T05:49:37;96567.53;;;10.76;86.89
57594;BME280;43423;46.510;6.686;2023-05-19T05:52:03;96577.06;;;10.96;86.02
57594;BME280;43423;46.510;6.686;2023-05-19T05:54:30;96576.66;;;11.03;87.61
57594;BME280;43423;46.510;6.686;2023-05-19T05:56:55;96577.50;;;11.09;85.59
57594;BME280;43423;46.510;6.686;2023-05-19T05:59:21;96565.81;;;11.14;85.68
57594;BME280;43423;46.510;6.686;2023-05-19T06:01:47;96572.44;;;11.22;86.44
57594;BME280;43423;46.510;6.686;2023-05-19T06:04:12;96572.00;;;11.29;86.10
57594;BME280;43423;46.510;6.686;2023-05-19T06:06:38;96577.47;;;11.44;85.67
57594;BME280;43423;46.510;6.686;2023-05-19T06:09:03;96577.81;;;11.52;85.44
57594;BME280;43423;46.510;6.686;2023-05-19T06:11:29;96569.16;;;11.59;85.23
57594;BME280;43423;46.510;6.686;2023-05-19T06:13:55;96559.44;;;11.63;86.25
57594;BME280;43423;46.510;6.686;2023-05-19T06:16:21;96571.63;;;11.77;83.83
57594;BME280;43423;46.510;6.686;2023-05-19T06:18:46;96573.81;;;11.73;83.18
57594;BME280;43423;46.510;6.686;2023-05-19T06:21:12;96572.31;;;11.72;82.56
57594;BME280;43423;46.510;6.686;2023-05-19T06:23:39;96569.50;;;11.87;83.19
57594;BME280;43423;46.510;6.686;2023-05-19T06:26:05;96571.06;;;11.73;81.63
57594;BME280;43423;46.510;6.686;2023-05-19T06:28:32;96565.81;;;11.75;81.25
57594;BME280;43423;46.510;6.686;2023-05-19T06:30:57;96568.25;;;11.88;81.21
57594;BME280;43423;46.510;6.686;2023-05-19T06:33:24;96567.88;;;12.00;81.57
57594;BME280;43423;46.510;6.686;2023-05-19T06:35:50;96570.97;;;12.08;79.40
57594;BME280;43423;46.510;6.686;2023-05-19T06:38:16;96569.84;;;11.94;79.75
57594;BME280;43423;46.510;6.686;2023-05-19T06:40:41;96576.56;;;11.73;80.57
57594;BME280;43423;46.510;6.686;2023-05-19T06:43:07;96556.28;;;11.70;81.16
57594;BME280;43423;46.510;6.686;2023-05-19T06:45:33;96576.34;;;11.77;80.84
57594;BME280;43423;46.510;6.686;2023-05-19T06:47:58;96574.53;;;11.88;81.82
57594;BME280;43423;46.510;6.686;2023-05-19T06:50:24;96570.53;;;11.89;80.58
57594;BME280;43423;46.510;6.686;2023-05-19T06:52:50;96571.16;;;11.79;80.29
57594;BME280;43423;46.510;6.686;2023-05-19T06:55:15;96565.00;;;12.10;81.30
57594;BME280;43423;46.510;6.686;2023-05-19T06:57:41;96568.75;;;12.38;79.25
57594;BME280;43423;46.510;6.686;2023-05-19T07:00:07;96570.06;;;12.43;78.40
57594;BME280;43423;46.510;6.686;2023-05-19T07:02:37;96564.78;;;12.13;78.73
57594;BME280;43423;46.510;6.686;2023-05-19T07:05:03;96564.94;;;12.04;78.98
57594;BME280;43423;46.510;6.686;2023-05-19T07:07:29;96563.63;;;11.79;80.88
57594;BME280;43423;46.510;6.686;2023-05-19T07:09:54;96567.66;;;12.24;80.68
57594;BME280;43423;46.510;6.686;2023-05-19T07:12:20;96568.00;;;12.12;77.56
57594;BME280;43423;46.510;6.686;2023-05-19T07:14:46;96575.78;;;12.13;77.60
57594;BME280;43423;46.510;6.686;2023-05-19T07:17:11;96574.44;;;12.03;79.90
57594;BME280;43423;46.510;6.686;2023-05-19T07:19:37;96582.16;;;11.99;78.63
57594;BME280;43423;46.510;6.686;2023-05-19T07:22:03;96567.59;;;12.19;78.18
57594;BME280;43423;46.510;6.686;2023-05-19T07:24:28;96572.97;;;12.08;76.74
57594;BME280;43423;46.510;6.686;2023-05-19T07:26:55;96572.75;;;12.37;77.77
57594;BME280;43423;46.510;6.686;2023-05-19T07:29:20;96580.16;;;11.99;76.45
57594;BME280;43423;46.510;6.686;2023-05-19T07:31:46;96582.06;;;12.14;77.14
57594;BME280;43423;46.510;6.686;2023-05-19T07:34:12;96571.84;;;12.20;77.93
57594;BME280;43423;46.510;6.686;2023-05-19T07:36:37;96571.09;;;12.19;77.24
57594;BME280;43423;46.510;6.686;2023-05-19T07:39:03;96563.00;;;12.10;78.47
57594;BME280;43423;46.510;6.686;2023-05-19T07:41:28;96568.53;;;12.68;77.30
57594;BME280;43423;46.510;6.686;2023-05-19T07:43:54;96568.16;;;12.86;75.35
57594;BME280;43423;46.510;6.686;2023-05-19T07:46:19;96561.28;;;13.07;75.04
57594;BME280;43423;46.510;6.686;2023-05-19T07:48:46;96556.13;;;13.21;73.70
57594;BME280;43423;46.510;6.686;2023-05-19T07:51:12;96548.97;;;13.46;73.08
57594;BME280;43423;46.510;6.686;2023-05-19T07:53:37;96553.78;;;13.56;73.20
57594;BME280;43423;46.510;6.686;2023-05-19T07:56:03;96557.53;;;13.53;71.74
57594;BME280;43423;46.510;6.686;2023-05-19T07:58:29;96546.09;;;13.23;70.65
57594;BME280;43423;46.510;6.686;2023-05-19T08:00:58;96543.28;;;12.80;71.86
57594;BME280;43423;46.510;6.686;2023-05-19T08:03:24;96538.06;;;12.88;73.80
57594;BME280;43423;46.510;6.686;2023-05-19T08:05:50;96537.91;;;13.03;74.07
57594;BME280;43423;46.510;6.686;2023-05-19T08:08:15;96541.91;;;13.02;73.68
57594;BME280;43423;46.510;6.686;2023-05-19T08:10:44;96539.72;;;13.11;71.21
57594;BME280;43423;46.510;6.686;2023-05-19T08:13:10;96546.88;;;12.92;71.50
57594;BME280;43423;46.510;6.686;2023-05-19T08:15:36;96549.47;;;12.70;71.07
57594;BME280;43423;46.510;6.686;2023-05-19T08:18:01;96544.72;;;12.70;73.15
57594;BME280;43423;46.510;6.686;2023-05-19T08:20:27;96543.84;;;12.90;71.61
57594;BME280;43423;46.510;6.686;2023-05-19T08:22:53;96542.44;;;13.06;72.29
57594;BME280;43423;46.510;6.686;2023-05-19T08:25:18;96550.19;;;13.39;69.83
57594;BME280;43423;46.510;6.686;2023-05-19T08:27:44;96538.50;;;13.18;68.64
57594;BME280;43423;46.510;6.686;2023-05-19T08:30:10;96540.19;;;13.47;68.64
57594;BME280;43423;46.510;6.686;2023-05-19T08:32:36;96534.84;;;13.32;69.93
57594;BME280;43423;46.510;6.686;2023-05-19T08:35:02;96530.94;;;13.13;71.99
57594;BME280;43423;46.510;6.686;2023-05-19T08:37:27;96523.16;;;13.11;69.13
57594;BME280;43423;46.510;6.686;2023-05-19T08:39:53;96523.56;;;13.36;70.54
57594;BME280;43423;46.510;6.686;2023-05-19T08:42:19;96532.19;;;13.55;72.27
57594;BME280;43423;46.510;6.686;2023-05-19T08:44:44;96523.22;;;13.88;70.04
57594;BME280;43423;46.510;6.686;2023-05-19T08:47:10;96512.44;;;13.84;68.04
57594;BME280;43423;46.510;6.686;2023-05-19T08:49:46;96522.47;;;13.82;69.21
57594;BME280;43423;46.510;6.686;2023-05-19T08:52:34;96525.94;;;13.65;67.50
57594;BME280;43423;46.510;6.686;2023-05-19T08:55:13;96517.28;;;13.41;68.90
57594;BME280;43423;46.510;6.686;2023-05-19T08:57:47;96518.34;;;13.49;69.33
57594;BME280;43423;46.510;6.686;2023-05-19T09:00:14;96515.09;;;13.56;68.81
57594;BME280;43423;46.510;6.686;2023-05-19T09:02:41;96519.91;;;13.61;67.50
57594;BME280;43423;46.510;6.686;2023-05-19T09:05:07;96524.13;;;13.57;68.71
57594;BME280;43423;46.510;6.686;2023-05-19T09:07:35;96520.88;;;13.58;68.89
57594;BME280;43423;46.510;6.686;2023-05-19T09:10:02;96515.16;;;13.79;70.03
57594;BME280;43423;46.510;6.686;2023-05-19T09:12:28;96526.50;;;13.97;69.20
57594;BME280;43423;46.510;6.686;2023-05-19T09:14:54;96516.19;;;13.76;65.72
57594;BME280;43423;46.510;6.686;2023-05-19T09:17:20;96513.91;;;13.80;67.75
57594;BME280;43423;46.510;6.686;2023-05-19T09:19:46;96512.38;;;13.67;68.78
57594;BME280;43423;46.510;6.686;2023-05-19T09:22:15;96504.69;;;14.11;69.36
57594;BME280;43423;46.510;6.686;2023-05-19T09:24:41;96502.19;;;14.24;67.22
57594;BME280;43423;46.510;6.686;2023-05-19T09:27:06;96496.16;;;14.31;67.43
57594;BME280;43423;46.510;6.686;2023-05-19T09:29:32;96496.91;;;14.32;67.18
57594;BME280;43423;46.510;6.686;2023-05-19T09:31:58;96486.56;;;13.93;67.45
57594;BME280;43423;46.510;6.686;2023-05-19T09:34:29;96495.88;;;14.12;67.63
57594;BME280;43423;46.510;6.686;2023-05-19T09:36:55;96501.19;;;14.16;65.44
57594;BME280;43423;46.510;6.686;2023-05-19T09:39:22;96493.94;;;14.46;68.47
57594;BME280;43423;46.510;6.686;2023-05-19T09:41:53;96500.44;;;14.60;68.29
57594;BME280;43423;46.510;6.686;2023-05-19T09:46:49;96500.22;;;14.47;65.69
57594;BME280;43423;46.510;6.686;2023-05-19T09:49:25;96490.38;;;14.23;66.68
57594;BME280;43423;46.510;6.686;2023-05-19T09:51:58;96499.44;;;14.52;65.79
57594;BME280;43423;46.510;6.686;2023-05-19T09:54:24;96497.44;;;14.47;64.90
57594;BME280;43423;46.510;6.686;2023-05-19T09:56:57;96487.84;;;14.37;66.30
57594;BME280;43423;46.510;6.686;2023-05-19T09:59:24;96484.09;;;14.51;65.10
57594;BME280;43423;46.510;6.686;2023-05-19T10:01:54;96483.34;;;14.67;66.53
57594;BME280;43423;46.510;6.686;2023-05-19T10:04:25;96491.63;;;14.90;64.42
57594;BME280;43423;46.510;6.686;2023-05-19T10:06:52;96487.28;;;15.11;65.81
57594;BME280;43423;46.510;6.686;2023-05-19T10:09:23;96490.53;;;15.15;65.03
57594;BME280;43423;46.510;6.686;2023-05-19T10:11:52;96487.69;;;15.38;64.53
57594;BME280;43423;46.510;6.686;2023-05-19T10:14:26;96485.16;;;15.40;62.86
57594;BME280;43423;46.510;6.686;2023-05-19T10:16:58;96485.38;;;15.47;61.13
57594;BME280;43423;46.510;6.686;2023-05-19T10:19:26;96483.25;;;15.12;63.52
57594;BME280;43423;46.510;6.686;2023-05-19T10:21:53;96484.94;;;15.32;62.55
57594;BME280;43423;46.510;6.686;2023-05-19T10:24:19;96478.75;;;15.09;62.22
57594;BME280;43423;46.510;6.686;2023-05-19T10:26:52;96488.94;;;15.42;64.10
57594;BME280;43423;46.510;6.686;2023-05-19T10:29:22;96483.84;;;15.57;63.76
57594;BME280;43423;46.510;6.686;2023-05-19T10:31:50;96475.00;;;15.59;63.93
57594;BME280;43423;46.510;6.686;2023-05-19T10:37:15;96472.16;;;16.17;60.89
57594;BME280;43423;46.510;6.686;2023-05-19T10:39:42;96475.19;;;15.78;61.75
57594;BME280;43423;46.510;6.686;2023-05-19T10:42:15;96473.88;;;15.84;62.56
57594;BME280;43423;46.510;6.686;2023-05-19T10:47:23;96467.47;;;15.65;61.76
57594;BME280;43423;46.510;6.686;2023-05-19T10:49:51;96468.31;;;15.32;63.24
57594;BME280;43423;46.510;6.686;2023-05-19T10:52:23;96471.13;;;15.26;64.54
57594;BME280;43423;46.510;6.686;2023-05-19T10:54:54;96476.13;;;15.33;61.49
57594;BME280;43423;46.510;6.686;2023-05-19T10:57:26;96469.34;;;15.34;62.46
57594;BME280;43423;46.510;6.686;2023-05-19T10:59:54;96469.28;;;15.40;61.94
57594;BME280;43423;46.510;6.686;2023-05-19T11:02:39;96459.44;;;15.50;61.01
57594;BME280;43423;46.510;6.686;2023-05-19T11:05:13;96477.50;;;15.74;60.92
57594;BME280;43423;46.510;6.686;2023-05-19T11:07:42;96461.63;;;15.05;61.00
57594;BME280;43423;46.510;6.686;2023-05-19T11:10:09;96463.16;;;14.95;62.94
57594;BME280;43423;46.510;6.686;2023-05-19T11:12:44;96455.84;;;15.03;61.56
57594;BME280;43423;46.510;6.686;2023-05-19T11:15:13;96460.53;;;15.30;63.32
57594;BME280;43423;46.510;6.686;2023-05-19T11:17:39;96458.72;;;15.39;62.98
57594;BME280;43423;46.510;6.686;2023-05-19T11:20:08;96451.69;;;15.32;63.20
57594;BME280;43423;46.510;6.686;2023-05-19T11:22:35;96445.41;;;15.31;62.58
57594;BME280;43423;46.510;6.686;2023-05-19T11:25:01;96445.91;;;15.35;62.68
57594;BME280;43423;46.510;6.686;2023-05-19T11:27:34;96455.59;;;16.06;61.03
57594;BME280;43423;46.510;6.686;2023-05-19T11:32:33;96440.91;;;15.81;61.00
57594;BME280;43423;46.510;6.686;2023-05-19T11:34:59;96442.50;;;16.06;62.27
57594;BME280;43423;46.510;6.686;2023-05-19T11:37:25;96446.97;;;16.45;59.59
57594;BME280;43423;46.510;6.686;2023-05-19T11:39:53;96446.69;;;15.83;59.64
57594;BME280;43423;46.510;6.686;2023-05-19T11:42:19;96445.78;;;15.58;61.62
57594;BME280;43423;46.510;6.686;2023-05-19T11:44:45;96453.00;;;15.25;61.14
57594;BME280;43423;46.510;6.686;2023-05-19T11:47:12;96445.41;;;15.31;61.72
57594;BME280;43423;46.510;6.686;2023-05-19T11:49:42;96432.47;;;15.98;62.28
57594;BME280;43423;46.510;6.686;2023-05-19T11:52:07;96436.25;;;15.95;61.43
57594;BME280;43423;46.510;6.686;2023-05-19T11:54:33;96438.97;;;16.06;60.77
57594;BME280;43423;46.510;6.686;2023-05-19T11:57:03;96434.94;;;16.37;60.38
57594;BME280;43423;46.510;6.686;2023-05-19T11:59:33;96425.13;;;16.60;59.50
57594;BME280;43423;46.510;6.686;2023-05-19T12:02:14;96425.88;;;16.61;59.91
57594;BME280;43423;46.510;6.686;2023-05-19T12:04:40;96428.47;;;16.53;59.44
57594;BME280;43423;46.510;6.686;2023-05-19T12:07:06;96429.28;;;15.82;58.92
57594;BME280;43423;46.510;6.686;2023-05-19T12:09:31;96434.97;;;15.54;60.75
57594;BME280;43423;46.510;6.686;2023-05-19T12:11:57;96424.69;;;15.44;63.02
57594;BME280;43423;46.510;6.686;2023-05-19T12:14:25;96422.69;;;15.44;63.21
57594;BME280;43423;46.510;6.686;2023-05-19T12:16:50;96417.03;;;15.72;62.39
57594;BME280;43423;46.510;6.686;2023-05-19T12:19:16;96418.84;;;16.00;62.11
57594;BME280;43423;46.510;6.686;2023-05-19T12:21:42;96413.56;;;16.26;60.25
57594;BME280;43423;46.510;6.686;2023-05-19T12:24:08;96400.78;;;16.47;61.40
57594;BME280;43423;46.510;6.686;2023-05-19T12:26:35;96411.19;;;16.66;62.64
57594;BME280;43423;46.510;6.686;2023-05-19T12:29:03;96412.13;;;16.74;60.65
57594;BME280;43423;46.510;6.686;2023-05-19T12:31:31;96417.78;;;16.63;60.51
57594;BME280;43423;46.510;6.686;2023-05-19T12:33:57;96404.50;;;16.80;59.02
57594;BME280;43423;46.510;6.686;2023-05-19T12:36:23;96411.22;;;17.34;58.17
57594;BME280;43423;46.510;6.686;2023-05-19T12:38:53;96406.25;;;17.83;56.34
57594;BME280;43423;46.510;6.686;2023-05-19T12:41:19;96409.88;;;17.78;56.08
57594;BME280;43423;46.510;6.686;2023-05-19T12:43:45;96403.38;;;17.89;55.23
57594;BME280;43423;46.510;6.686;2023-05-19T12:46:11;96411.78;;;18.02;55.18
57594;BME280;43423;46.510;6.686;2023-05-19T12:48:42;96397.13;;;18.33;55.65
57594;BME280;43423;46.510;6.686;2023-05-19T12:51:08;96403.69;;;18.49;53.70
57594;BME280;43423;46.510;6.686;2023-05-19T12:53:35;96406.78;;;18.59;54.85
57594;BME280;43423;46.510;6.686;2023-05-19T12:56:10;96402.38;;;18.63;53.89
57594;BME280;43423;46.510;6.686;2023-05-19T12:58:36;96411.16;;;18.54;54.00
57594;BME280;43423;46.510;6.686;2023-05-19T13:01:03;96408.38;;;18.41;51.97
57594;BME280;43423;46.510;6.686;2023-05-19T13:03:28;96396.16;;;18.44;51.87
57594;BME280;43423;46.510;6.686;2023-05-19T13:05:54;96387.66;;;18.68;55.14
57594;BME280;43423;46.510;6.686;2023-05-19T13:08:20;96381.41;;;18.62;52.35
57594;BME280;43423;46.510;6.686;2023-05-19T13:10:48;96386.78;;;18.87;53.25
57594;BME280;43423;46.510;6.686;2023-05-19T13:13:14;96393.47;;;18.38;52.72
57594;BME280;43423;46.510;6.686;2023-05-19T13:15:42;96389.00;;;18.03;52.90
57594;BME280;43423;46.510;6.686;2023-05-19T13:18:09;96381.09;;;18.07;53.29
57594;BME280;43423;46.510;6.686;2023-05-19T13:20:35;96380.50;;;18.28;55.57
57594;BME280;43423;46.510;6.686;2023-05-19T13:23:02;96375.22;;;18.11;52.43
57594;BME280;43423;46.510;6.686;2023-05-19T13:25:27;96371.66;;;17.97;52.76